sensor_id;sensor_type;location;lat;lon;timestamp;P1;durP1;ratioP1;P2;durP2;ratioP2
70450;SDS011;58869;51.982;4.450;2023-07-08T00:02:10;4.52;;;4.52;;
70450;SDS011;58869;51.982;4.450;2023-07-08T00:04:37;4.50;;;4.50;;
70450;SDS011;58869;51.982;4.450;2023-07-08T00:07:03;4.34;;;4.34;;
70450;SDS011;58869;51.982;4.450;2023-07-08T00:09:28;4.13;;;4.13;;
70450;SDS011;58869;51.982;4.450;2023-07-08T00:11:55;4.43;;;4.43;;
70450;SDS011;58869;51.982;4.450;2023-07-08T00:14:22;4.30;;;4.30;;
70450;SDS011;58869;51.982;4.450;2023-07-08T00:16:48;4.26;;;4.26;;
70450;SDS011;58869;51.982;4.450;2023-07-08T00:19:14;4.20;;;4.20;;
70450;SDS011;58869;51.982;4.450;2023-07-08T00:21:44;4.52;;;4.52;;
70450;SDS011;58869;51.982;4.450;2023-07-08T00:24:10;4.27;;;4.27;;
70450;SDS011;58869;51.982;4.450;2023-07-08T00:26:36;3.97;;;3.97;;
70450;SDS011;58869;51.982;4.450;2023-07-08T00:29:02;4.29;;;4.29;;
70450;SDS011;58869;51.982;4.450;2023-07-08T00:31:28;4.39;;;4.39;;
70450;SDS011;58869;51.982;4.450;2023-07-08T00:33:57;4.46;;;4.46;;
70450;SDS011;58869;51.982;4.450;2023-07-08T00:36:23;4.45;;;4.45;;
70450;SDS011;58869;51.982;4.450;2023-07-08T00:38:50;4.31;;;4.31;;
70450;SDS011;58869;51.982;4.450;2023-07-08T00:41:18;3.96;;;3.96;;
70450;SDS011;58869;51.982;4.450;2023-07-08T00:43:49;4.23;;;4.23;;
70450;SDS011;58869;51.982;4.450;2023-07-08T00:46:28;4.29;;;4.29;;
70450;SDS011;58869;51.982;4.450;2023-07-08T00:49:01;4.55;;;4.55;;
70450;SDS011;58869;51.982;4.450;2023-07-08T00:51:37;4.68;;;4.68;;
70450;SDS011;58869;51.982;4.450;2023-07-08T00:54:05;4.41;;;4.41;;
70450;SDS011;58869;51.982;4.450;2023-07-08T00:56:36;4.78;;;4.78;;
70450;SDS011;58869;51.982;4.450;2023-07-08T00:59:21;4.67;;;4.67;;
70450;SDS011;58869;51.982;4.450;2023-07-08T01:01:48;4.36;;;4.36;;
70450;SDS011;58869;51.982;4.450;2023-07-08T01:04:17;4.88;;;4.88;;
70450;SDS011;58869;51.982;4.450;2023-07-08T01:06:48;4.90;;;4.90;;
70450;SDS011;58869;51.982;4.450;2023-07-08T01:09:22;4.74;;;4.74;;
70450;SDS011;58869;51.982;4.450;2023-07-08T01:11:56;4.81;;;4.81;;
70450;SDS011;58869;51.982;4.450;2023-07-08T01:14:25;4.74;;;4.74;;
70450;SDS011;58869;51.982;4.450;2023-07-08T01:16:57;4.85;;;4.85;;
70450;SDS011;58869;51.982;4.450;2023-07-08T01:19:23;4.66;;;4.66;;
70450;SDS011;58869;51.982;4.450;2023-07-08T01:22:04;4.69;;;4.69;;
70450;SDS011;58869;51.982;4.450;2023-07-08T01:24:31;4.71;;;4.71;;
70450;SDS011;58869;51.982;4.450;2023-07-08T01:27:01;4.50;;;4.50;;
70450;SDS011;58869;51.982;4.450;2023-07-08T01:29:31;4.73;;;4.73;;
70450;SDS011;58869;51.982;4.450;2023-07-08T01:31:58;4.59;;;4.59;;
70450;SDS011;58869;51.982;4.450;2023-07-08T01:34:36;4.91;;;4.91;;
70450;SDS011;58869;51.982;4.450;2023-07-08T01:37:03;4.47;;;4.47;;
70450;SDS011;58869;51.982;4.450;2023-07-08T01:39:31;4.60;;;4.60;;
70450;SDS011;58869;51.982;4.450;2023-07-08T01:41:57;4.56;;;4.56;;
70450;SDS011;58869;51.982;4.450;2023-07-08T01:44:27;4.68;;;4.68;;
70450;SDS011;58869;51.982;4.450;2023-07-08T01:46:58;4.54;;;4.54;;
70450;SDS011;58869;51.982;4.450;2023-07-08T01:49:37;4.78;;;4.78;;
70450;SDS011;58869;51.982;4.450;2023-07-08T01:52:05;4.63;;;4.63;;
70450;SDS011;58869;51.982;4.450;2023-07-08T01:54:32;4.92;;;4.92;;
70450;SDS011;58869;51.982;4.450;2023-07-08T01:56:57;5.02;;;5.02;;
70450;SDS011;58869;51.982;4.450;2023-07-08T01:59:23;4.69;;;4.69;;
70450;SDS011;58869;51.982;4.450;2023-07-08T02:01:52;4.80;;;4.80;;
70450;SDS011;58869;51.982;4.450;2023-07-08T02:04:23;4.99;;;4.99;;
70450;SDS011;58869;51.982;4.450;2023-07-08T02:06:54;5.29;;;5.29;;
70450;SDS011;58869;51.982;4.450;2023-07-08T02:09:21;5.66;;;5.66;;
70450;SDS011;58869;51.982;4.450;2023-07-08T02:11:47;5.26;;;5.26;;
70450;SDS011;58869;51.982;4.450;2023-07-08T02:14:12;5.46;;;5.46;;
70450;SDS011;58869;51.982;4.450;2023-07-08T02:16:38;5.44;;;5.44;;
70450;SDS011;58869;51.982;4.450;2023-07-08T02:19:03;5.37;;;5.37;;
70450;SDS011;58869;51.982;4.450;2023-07-08T02:21:29;5.29;;;5.29;;
70450;SDS011;58869;51.982;4.450;2023-07-08T02:23:56;5.37;;;5.37;;
70450;SDS011;58869;51.982;4.450;2023-07-08T02:26:23;5.49;;;5.49;;
70450;SDS011;58869;51.982;4.450;2023-07-08T02:28:48;5.78;;;5.78;;
70450;SDS011;58869;51.982;4.450;2023-07-08T02:31:14;5.44;;;5.44;;
70450;SDS011;58869;51.982;4.450;2023-07-08T02:33:40;5.61;;;5.61;;
70450;SDS011;58869;51.982;4.450;2023-07-08T02:36:05;5.75;;;5.75;;
70450;SDS011;58869;51.982;4.450;2023-07-08T02:38:31;5.65;;;5.65;;
70450;SDS011;58869;51.982;4.450;2023-07-08T02:40:57;5.55;;;5.55;;
70450;SDS011;58869;51.982;4.450;2023-07-08T02:43:22;5.67;;;5.67;;
70450;SDS011;58869;51.982;4.450;2023-07-08T02:45:51;5.34;;;5.34;;
70450;SDS011;58869;51.982;4.450;2023-07-08T02:48:20;5.69;;;5.69;;
70450;SDS011;58869;51.982;4.450;2023-07-08T02:50:45;5.62;;;5.62;;
70450;SDS011;58869;51.982;4.450;2023-07-08T02:53:11;5.41;;;5.41;;
70450;SDS011;58869;51.982;4.450;2023-07-08T02:55:38;5.64;;;5.64;;
70450;SDS011;58869;51.982;4.450;2023-07-08T02:58:04;5.63;;;5.63;;
70450;SDS011;58869;51.982;4.450;2023-07-08T03:00:29;5.94;;;5.94;;
70450;SDS011;58869;51.982;4.450;2023-07-08T03:02:54;5.70;;;5.70;;
70450;SDS011;58869;51.982;4.450;2023-07-08T03:05:20;5.36;;;5.36;;
70450;SDS011;58869;51.982;4.450;2023-07-08T03:07:47;5.59;;;5.59;;
70450;SDS011;58869;51.982;4.450;2023-07-08T03:10:12;5.55;;;5.55;;
70450;SDS011;58869;51.982;4.450;2023-07-08T03:12:39;5.51;;;5.51;;
70450;SDS011;58869;51.982;4.450;2023-07-08T03:15:05;5.65;;;5.65;;
70450;SDS011;58869;51.982;4.450;2023-07-08T03:17:34;5.75;;;5.75;;
70450;SDS011;58869;51.982;4.450;2023-07-08T03:20:00;5.70;;;5.70;;
70450;SDS011;58869;51.982;4.450;2023-07-08T03:22:27;5.81;;;5.81;;
70450;SDS011;58869;51.982;4.450;2023-07-08T03:24:52;5.87;;;5.87;;
70450;SDS011;58869;51.982;4.450;2023-07-08T03:27:18;5.74;;;5.74;;
70450;SDS011;58869;51.982;4.450;2023-07-08T03:29:43;5.97;;;5.97;;
70450;SDS011;58869;51.982;4.450;2023-07-08T03:32:10;6.07;;;6.07;;
70450;SDS011;58869;51.982;4.450;2023-07-08T03:34:37;6.01;;;6.01;;
70450;SDS011;58869;51.982;4.450;2023-07-08T03:37:03;6.04;;;6.04;;
70450;SDS011;58869;51.982;4.450;2023-07-08T03:39:28;5.95;;;5.95;;
70450;SDS011;58869;51.982;4.450;2023-07-08T03:41:54;5.77;;;5.77;;
70450;SDS011;58869;51.982;4.450;2023-07-08T03:44:20;5.68;;;5.68;;
70450;SDS011;58869;51.982;4.450;2023-07-08T03:46:46;5.72;;;5.72;;
70450;SDS011;58869;51.982;4.450;2023-07-08T03:49:14;5.73;;;5.73;;
70450;SDS011;58869;51.982;4.450;2023-07-08T03:51:42;6.07;;;6.07;;
70450;SDS011;58869;51.982;4.450;2023-07-08T03:54:09;6.12;;;6.12;;
70450;SDS011;58869;51.982;4.450;2023-07-08T03:56:37;6.12;;;6.12;;
70450;SDS011;58869;51.982;4.450;2023-07-08T03:59:05;6.31;;;6.31;;
70450;SDS011;58869;51.982;4.450;2023-07-08T04:01:34;6.23;;;6.23;;
70450;SDS011;58869;51.982;4.450;2023-07-08T04:03:59;6.28;;;6.28;;
70450;SDS011;58869;51.982;4.450;2023-07-08T04:06:25;6.04;;;6.04;;
70450;SDS011;58869;51.982;4.450;2023-07-08T04:08:52;6.30;;;6.30;;
70450;SDS011;58869;51.982;4.450;2023-07-08T04:11:19;6.27;;;6.27;;
70450;SDS011;58869;51.982;4.450;2023-07-08T04:13:55;6.18;;;6.18;;
70450;SDS011;58869;51.982;4.450;2023-07-08T04:16:22;6.21;;;6.21;;
70450;SDS011;58869;51.982;4.450;2023-07-08T04:18:53;6.28;;;6.28;;
70450;SDS011;58869;51.982;4.450;2023-07-08T04:21:19;6.02;;;6.02;;
70450;SDS011;58869;51.982;4.450;2023-07-08T04:23:46;6.30;;;6.30;;
70450;SDS011;58869;51.982;4.450;2023-07-08T04:26:12;6.67;;;6.67;;
70450;SDS011;58869;51.982;4.450;2023-07-08T04:28:37;6.55;;;6.55;;
70450;SDS011;58869;51.982;4.450;2023-07-08T04:31:03;6.72;;;6.72;;
70450;SDS011;58869;51.982;4.450;2023-07-08T04:33:29;6.29;;;6.29;;
70450;SDS011;58869;51.982;4.450;2023-07-08T04:35:55;6.19;;;6.19;;
70450;SDS011;58869;51.982;4.450;2023-07-08T04:38:22;6.11;;;6.11;;
70450;SDS011;58869;51.982;4.450;2023-07-08T04:40:49;6.32;;;6.32;;
70450;SDS011;58869;51.982;4.450;2023-07-08T04:43:16;6.00;;;6.00;;
70450;SDS011;58869;51.982;4.450;2023-07-08T04:45:43;6.11;;;6.11;;
70450;SDS011;58869;51.982;4.450;2023-07-08T04:48:14;6.40;;;6.40;;
70450;SDS011;58869;51.982;4.450;2023-07-08T04:50:40;6.22;;;6.22;;
70450;SDS011;58869;51.982;4.450;2023-07-08T04:53:07;6.31;;;6.31;;
70450;SDS011;58869;51.982;4.450;2023-07-08T04:55:33;6.20;;;6.20;;
70450;SDS011;58869;51.982;4.450;2023-07-08T04:58:04;6.40;;;6.40;;
70450;SDS011;58869;51.982;4.450;2023-07-08T05:00:29;6.56;;;6.56;;
70450;SDS011;58869;51.982;4.450;2023-07-08T05:02:55;6.54;;;6.54;;
70450;SDS011;58869;51.982;4.450;2023-07-08T05:05:20;6.83;;;6.83;;
70450;SDS011;58869;51.982;4.450;2023-07-08T05:07:46;6.82;;;6.82;;
70450;SDS011;58869;51.982;4.450;2023-07-08T05:10:11;6.45;;;6.45;;
70450;SDS011;58869;51.982;4.450;2023-07-08T05:12:37;6.41;;;6.41;;
70450;SDS011;58869;51.982;4.450;2023-07-08T05:15:05;6.74;;;6.74;;
70450;SDS011;58869;51.982;4.450;2023-07-08T05:17:31;6.75;;;6.75;;
70450;SDS011;58869;51.982;4.450;2023-07-08T05:19:57;6.58;;;6.58;;
70450;SDS011;58869;51.982;4.450;2023-07-08T05:22:25;6.52;;;6.52;;
70450;SDS011;58869;51.982;4.450;2023-07-08T05:24:52;6.33;;;6.33;;
70450;SDS011;58869;51.982;4.450;2023-07-08T05:27:20;6.67;;;6.67;;
70450;SDS011;58869;51.982;4.450;2023-07-08T05:29:47;6.47;;;6.47;;
70450;SDS011;58869;51.982;4.450;2023-07-08T05:32:13;6.30;;;6.30;;
70450;SDS011;58869;51.982;4.450;2023-07-08T05:34:38;6.37;;;6.37;;
70450;SDS011;58869;51.982;4.450;2023-07-08T05:37:04;6.16;;;6.16;;
70450;SDS011;58869;51.982;4.450;2023-07-08T05:39:30;6.44;;;6.44;;
70450;SDS011;58869;51.982;4.450;2023-07-08T05:41:55;5.77;;;5.77;;
70450;SDS011;58869;51.982;4.450;2023-07-08T05:44:21;6.10;;;6.10;;
70450;SDS011;58869;51.982;4.450;2023-07-08T05:46:47;6.05;;;6.05;;
70450;SDS011;58869;51.982;4.450;2023-07-08T05:49:14;6.63;;;6.63;;
70450;SDS011;58869;51.982;4.450;2023-07-08T05:51:39;6.29;;;6.29;;
70450;SDS011;58869;51.982;4.450;2023-07-08T05:54:05;6.13;;;6.13;;
70450;SDS011;58869;51.982;4.450;2023-07-08T05:56:31;6.14;;;6.14;;
70450;SDS011;58869;51.982;4.450;2023-07-08T05:59:14;6.03;;;6.03;;
70450;SDS011;58869;51.982;4.450;2023-07-08T06:12:05;5.95;;;5.95;;
70450;SDS011;58869;51.982;4.450;2023-07-08T06:15:08;6.01;;;6.01;;
70450;SDS011;58869;51.982;4.450;2023-07-08T06:24:39;5.74;;;5.74;;
70450;SDS011;58869;51.982;4.450;2023-07-08T06:27:05;5.84;;;5.84;;
70450;SDS011;58869;51.982;4.450;2023-07-08T06:50:08;6.12;;;6.12;;
70450;SDS011;58869;51.982;4.450;2023-07-08T06:52:43;5.85;;;5.85;;
70450;SDS011;58869;51.982;4.450;2023-07-08T06:59:41;5.67;;;5.67;;
70450;SDS011;58869;51.982;4.450;2023-07-08T07:21:18;6.00;;;6.00;;
70450;SDS011;58869;51.982;4.450;2023-07-08T07:23:49;5.80;;;5.80;;
70450;SDS011;58869;51.982;4.450;2023-07-08T07:26:15;6.18;;;6.18;;
70450;SDS011;58869;51.982;4.450;2023-07-08T07:28:42;6.37;;;6.37;;
70450;SDS011;58869;51.982;4.450;2023-07-08T07:31:07;6.01;;;6.01;;
70450;SDS011;58869;51.982;4.450;2023-07-08T07:33:34;6.00;;;6.00;;
70450;SDS011;58869;51.982;4.450;2023-07-08T07:35:59;5.66;;;5.66;;
70450;SDS011;58869;51.982;4.450;2023-07-08T07:38:25;5.71;;;5.71;;
70450;SDS011;58869;51.982;4.450;2023-07-08T07:40:54;6.23;;;6.23;;
70450;SDS011;58869;51.982;4.450;2023-07-08T07:43:20;6.13;;;6.13;;
70450;SDS011;58869;51.982;4.450;2023-07-08T07:45:51;6.11;;;6.11;;
70450;SDS011;58869;51.982;4.450;2023-07-08T07:48:19;6.08;;;6.08;;
70450;SDS011;58869;51.982;4.450;2023-07-08T07:50:48;6.82;;;6.82;;
70450;SDS011;58869;51.982;4.450;2023-07-08T07:53:16;6.57;;;6.57;;
70450;SDS011;58869;51.982;4.450;2023-07-08T07:55:42;5.86;;;5.86;;
70450;SDS011;58869;51.982;4.450;2023-07-08T07:58:08;5.36;;;5.36;;
70450;SDS011;58869;51.982;4.450;2023-07-08T08:00:33;5.95;;;5.95;;
70450;SDS011;58869;51.982;4.450;2023-07-08T08:02:59;6.03;;;6.03;;
70450;SDS011;58869;51.982;4.450;2023-07-08T08:05:24;6.12;;;6.12;;
70450;SDS011;58869;51.982;4.450;2023-07-08T08:07:50;6.40;;;6.40;;
70450;SDS011;58869;51.982;4.450;2023-07-08T08:10:16;6.15;;;6.15;;
70450;SDS011;58869;51.982;4.450;2023-07-08T08:12:41;6.75;;;6.75;;
70450;SDS011;58869;51.982;4.450;2023-07-08T08:15:07;5.99;;;5.99;;
70450;SDS011;58869;51.982;4.450;2023-07-08T08:17:33;5.95;;;5.95;;
70450;SDS011;58869;51.982;4.450;2023-07-08T08:19:58;6.71;;;6.71;;
70450;SDS011;58869;51.982;4.450;2023-07-08T08:22:24;6.94;;;6.94;;
70450;SDS011;58869;51.982;4.450;2023-07-08T08:24:49;6.74;;;6.74;;
70450;SDS011;58869;51.982;4.450;2023-07-08T08:27:15;7.04;;;7.04;;
70450;SDS011;58869;51.982;4.450;2023-07-08T08:29:40;6.67;;;6.67;;
70450;SDS011;58869;51.982;4.450;2023-07-08T08:32:06;6.71;;;6.71;;
70450;SDS011;58869;51.982;4.450;2023-07-08T08:34:31;6.97;;;6.97;;
70450;SDS011;58869;51.982;4.450;2023-07-08T08:36:57;6.77;;;6.77;;
70450;SDS011;58869;51.982;4.450;2023-07-08T08:39:26;6.67;;;6.67;;
70450;SDS011;58869;51.982;4.450;2023-07-08T08:41:54;6.60;;;6.60;;
70450;SDS011;58869;51.982;4.450;2023-07-08T08:44:26;6.83;;;6.83;;
70450;SDS011;58869;51.982;4.450;2023-07-08T08:47:08;6.72;;;6.72;;
70450;SDS011;58869;51.982;4.450;2023-07-08T08:50:02;7.36;;;7.36;;
70450;SDS011;58869;51.982;4.450;2023-07-08T08:52:45;7.10;;;7.10;;
70450;SDS011;58869;51.982;4.450;2023-07-08T08:55:12;6.84;;;6.84;;
70450;SDS011;58869;51.982;4.450;2023-07-08T08:57:43;6.77;;;6.77;;
70450;SDS011;58869;51.982;4.450;2023-07-08T09:00:16;6.38;;;6.38;;
70450;SDS011;58869;51.982;4.450;2023-07-08T09:02:59;6.16;;;6.16;;
70450;SDS011;58869;51.982;4.450;2023-07-08T09:05:29;6.03;;;6.03;;
70450;SDS011;58869;51.982;4.450;2023-07-08T09:13:16;6.95;;;6.95;;
70450;SDS011;58869;51.982;4.450;2023-07-08T09:15:48;6.82;;;6.82;;
70450;SDS011;58869;51.982;4.450;2023-07-08T09:18:25;6.20;;;6.20;;
70450;SDS011;58869;51.982;4.450;2023-07-08T09:20:57;6.42;;;6.42;;
70450;SDS011;58869;51.982;4.450;2023-07-08T09:23:34;6.95;;;6.95;;
70450;SDS011;58869;51.982;4.450;2023-07-08T09:26:04;6.70;;;6.70;;
70450;SDS011;58869;51.982;4.450;2023-07-08T09:28:46;6.73;;;6.73;;
70450;SDS011;58869;51.982;4.450;2023-07-08T09:31:22;6.82;;;6.82;;
70450;SDS011;58869;51.982;4.450;2023-07-08T09:36:39;6.76;;;6.76;;
70450;SDS011;58869;51.982;4.450;2023-07-08T09:39:10;6.87;;;6.87;;
70450;SDS011;58869;51.982;4.450;2023-07-08T09:41:40;6.85;;;6.85;;
70450;SDS011;58869;51.982;4.450;2023-07-08T09:44:24;7.33;;;7.33;;
70450;SDS011;58869;51.982;4.450;2023-07-08T09:46:55;7.33;;;7.33;;
70450;SDS011;58869;51.982;4.450;2023-07-08T09:49:31;7.23;;;7.23;;
70450;SDS011;58869;51.982;4.450;2023-07-08T09:52:07;6.70;;;6.70;;
70450;SDS011;58869;51.982;4.450;2023-07-08T09:54:42;6.33;;;6.33;;
70450;SDS011;58869;51.982;4.450;2023-07-08T09:57:12;6.93;;;6.93;;
70450;SDS011;58869;51.982;4.450;2023-07-08T10:00:07;6.65;;;6.65;;
70450;SDS011;58869;51.982;4.450;2023-07-08T10:02:46;6.62;;;6.62;;
70450;SDS011;58869;51.982;4.450;2023-07-08T10:05:20;7.18;;;7.18;;
70450;SDS011;58869;51.982;4.450;2023-07-08T10:07:52;6.69;;;6.69;;
70450;SDS011;58869;51.982;4.450;2023-07-08T10:10:34;7.17;;;7.17;;
70450;SDS011;58869;51.982;4.450;2023-07-08T10:13:14;7.10;;;7.10;;
70450;SDS011;58869;51.982;4.450;2023-07-08T10:17:00;6.98;;;6.98;;
70450;SDS011;58869;51.982;4.450;2023-07-08T10:19:32;7.11;;;7.11;;
70450;SDS011;58869;51.982;4.450;2023-07-08T10:22:16;6.78;;;6.78;;
70450;SDS011;58869;51.982;4.450;2023-07-08T10:25:32;7.00;;;7.00;;
70450;SDS011;58869;51.982;4.450;2023-07-08T10:28:40;7.19;;;7.19;;
70450;SDS011;58869;51.982;4.450;2023-07-08T10:31:53;6.93;;;6.93;;
70450;SDS011;58869;51.982;4.450;2023-07-08T10:35:14;7.41;;;7.41;;
70450;SDS011;58869;51.982;4.450;2023-07-08T10:38:08;7.20;;;7.20;;
70450;SDS011;58869;51.982;4.450;2023-07-08T10:44:24;7.32;;;7.32;;
70450;SDS011;58869;51.982;4.450;2023-07-08T10:52:59;7.64;;;7.64;;
70450;SDS011;58869;51.982;4.450;2023-07-08T11:04:38;6.73;;;6.73;;
70450;SDS011;58869;51.982;4.450;2023-07-08T11:10:36;7.72;;;7.72;;
70450;SDS011;58869;51.982;4.450;2023-07-08T11:13:26;7.19;;;7.19;;
70450;SDS011;58869;51.982;4.450;2023-07-08T11:21:39;7.84;;;7.84;;
70450;SDS011;58869;51.982;4.450;2023-07-08T11:27:10;8.35;;;8.35;;
70450;SDS011;58869;51.982;4.450;2023-07-08T11:29:51;8.15;;;8.15;;
70450;SDS011;58869;51.982;4.450;2023-07-08T11:32:33;8.32;;;8.32;;
70450;SDS011;58869;51.982;4.450;2023-07-08T11:35:03;8.07;;;8.07;;
70450;SDS011;58869;51.982;4.450;2023-07-08T11:37:33;8.66;;;8.66;;
70450;SDS011;58869;51.982;4.450;2023-07-08T11:40:05;8.27;;;8.27;;
70450;SDS011;58869;51.982;4.450;2023-07-08T11:43:02;8.06;;;8.05;;
70450;SDS011;58869;51.982;4.450;2023-07-08T11:45:34;8.13;;;8.13;;
70450;SDS011;58869;51.982;4.450;2023-07-08T11:48:04;8.20;;;8.20;;
70450;SDS011;58869;51.982;4.450;2023-07-08T11:50:50;8.24;;;8.24;;
70450;SDS011;58869;51.982;4.450;2023-07-08T11:53:46;7.86;;;7.86;;
70450;SDS011;58869;51.982;4.450;2023-07-08T11:56:50;7.90;;;7.90;;
70450;SDS011;58869;51.982;4.450;2023-07-08T12:00:05;8.23;;;8.23;;
70450;SDS011;58869;51.982;4.450;2023-07-08T12:03:12;7.96;;;7.96;;
70450;SDS011;58869;51.982;4.450;2023-07-08T12:08:57;8.01;;;8.01;;
70450;SDS011;58869;51.982;4.450;2023-07-08T12:11:36;8.13;;;8.13;;
70450;SDS011;58869;51.982;4.450;2023-07-08T12:14:46;7.99;;;7.99;;
70450;SDS011;58869;51.982;4.450;2023-07-08T12:17:23;8.01;;;8.01;;
70450;SDS011;58869;51.982;4.450;2023-07-08T12:19:49;7.70;;;7.70;;
70450;SDS011;58869;51.982;4.450;2023-07-08T12:22:20;8.02;;;8.02;;
70450;SDS011;58869;51.982;4.450;2023-07-08T12:24:45;7.62;;;7.62;;
70450;SDS011;58869;51.982;4.450;2023-07-08T12:27:17;7.75;;;7.75;;
70450;SDS011;58869;51.982;4.450;2023-07-08T12:29:43;7.65;;;7.65;;
70450;SDS011;58869;51.982;4.450;2023-07-08T12:32:10;7.76;;;7.76;;
70450;SDS011;58869;51.982;4.450;2023-07-08T12:34:58;7.60;;;7.60;;
70450;SDS011;58869;51.982;4.450;2023-07-08T12:37:23;7.06;;;7.06;;
70450;SDS011;58869;51.982;4.450;2023-07-08T12:40:08;7.41;;;7.41;;
70450;SDS011;58869;51.982;4.450;2023-07-08T12:42:38;7.62;;;7.62;;
70450;SDS011;58869;51.982;4.450;2023-07-08T12:45:12;7.57;;;7.57;;
70450;SDS011;58869;51.982;4.450;2023-07-08T12:47:49;7.41;;;7.41;;
70450;SDS011;58869;51.982;4.450;2023-07-08T12:50:15;7.42;;;7.42;;
70450;SDS011;58869;51.982;4.450;2023-07-08T12:52:56;7.25;;;7.25;;
70450;SDS011;58869;51.982;4.450;2023-07-08T12:55:22;7.04;;;7.04;;
70450;SDS011;58869;51.982;4.450;2023-07-08T12:58:25;7.34;;;7.34;;
70450;SDS011;58869;51.982;4.450;2023-07-08T13:01:15;7.27;;;7.27;;
70450;SDS011;58869;51.982;4.450;2023-07-08T13:04:44;7.19;;;7.19;;
70450;SDS011;58869;51.982;4.450;2023-07-08T13:07:35;7.11;;;7.11;;
70450;SDS011;58869;51.982;4.450;2023-07-08T13:17:45;7.19;;;7.19;;
70450;SDS011;58869;51.982;4.450;2023-07-08T13:20:16;6.95;;;6.95;;
70450;SDS011;58869;51.982;4.450;2023-07-08T13:22:45;6.78;;;6.78;;
70450;SDS011;58869;51.982;4.450;2023-07-08T13:25:31;7.05;;;7.05;;
70450;SDS011;58869;51.982;4.450;2023-07-08T13:37:37;6.69;;;6.69;;
70450;SDS011;58869;51.982;4.450;2023-07-08T13:42:29;6.66;;;6.66;;
70450;SDS011;58869;51.982;4.450;2023-07-08T13:45:01;6.93;;;6.93;;
70450;SDS011;58869;51.982;4.450;2023-07-08T13:51:38;6.95;;;6.95;;
70450;SDS011;58869;51.982;4.450;2023-07-08T14:00:41;6.75;;;6.75;;
70450;SDS011;58869;51.982;4.450;2023-07-08T14:06:03;6.73;;;6.73;;
70450;SDS011;58869;51.982;4.450;2023-07-08T14:08:34;7.02;;;7.02;;
70450;SDS011;58869;51.982;4.450;2023-07-08T14:11:03;6.44;;;6.44;;
70450;SDS011;58869;51.982;4.450;2023-07-08T14:13:37;6.66;;;6.66;;
70450;SDS011;58869;51.982;4.450;2023-07-08T14:18:38;6.97;;;6.97;;
70450;SDS011;58869;51.982;4.450;2023-07-08T14:21:19;6.90;;;6.90;;
70450;SDS011;58869;51.982;4.450;2023-07-08T14:30:02;7.31;;;7.31;;
70450;SDS011;58869;51.982;4.450;2023-07-08T14:32:34;7.37;;;7.37;;
70450;SDS011;58869;51.982;4.450;2023-07-08T14:35:17;7.83;;;7.83;;
70450;SDS011;58869;51.982;4.450;2023-07-08T14:38:10;7.15;;;7.15;;
70450;SDS011;58869;51.982;4.450;2023-07-08T14:50:42;7.61;;;7.61;;
70450;SDS011;58869;51.982;4.450;2023-07-08T14:53:42;7.62;;;7.62;;
70450;SDS011;58869;51.982;4.450;2023-07-08T14:56:23;8.08;;;8.08;;
70450;SDS011;58869;51.982;4.450;2023-07-08T14:59:12;9.24;;;9.19;;
70450;SDS011;58869;51.982;4.450;2023-07-08T15:11:04;8.58;;;8.58;;
70450;SDS011;58869;51.982;4.450;2023-07-08T15:13:38;8.06;;;8.06;;
70450;SDS011;58869;51.982;4.450;2023-07-08T15:16:23;8.65;;;8.65;;
70450;SDS011;58869;51.982;4.450;2023-07-08T15:18:50;8.45;;;8.45;;
70450;SDS011;58869;51.982;4.450;2023-07-08T15:21:28;8.89;;;8.89;;
70450;SDS011;58869;51.982;4.450;2023-07-08T15:23:54;9.25;;;9.25;;
70450;SDS011;58869;51.982;4.450;2023-07-08T15:33:08;8.11;;;8.11;;
70450;SDS011;58869;51.982;4.450;2023-07-08T15:35:37;8.12;;;8.12;;
70450;SDS011;58869;51.982;4.450;2023-07-08T15:38:03;8.56;;;8.56;;
70450;SDS011;58869;51.982;4.450;2023-07-08T15:40:59;8.34;;;8.34;;
70450;SDS011;58869;51.982;4.450;2023-07-08T15:43:27;8.61;;;8.61;;
70450;SDS011;58869;51.982;4.450;2023-07-08T15:49:33;8.46;;;8.46;;
70450;SDS011;58869;51.982;4.450;2023-07-08T15:52:02;8.98;;;8.98;;
70450;SDS011;58869;51.982;4.450;2023-07-08T15:57:44;9.94;;;9.94;;
70450;SDS011;58869;51.982;4.450;2023-07-08T16:03:43;8.83;;;8.83;;
70450;SDS011;58869;51.982;4.450;2023-07-08T16:06:09;8.38;;;8.38;;
70450;SDS011;58869;51.982;4.450;2023-07-08T16:08:54;8.12;;;8.12;;
70450;SDS011;58869;51.982;4.450;2023-07-08T16:11:34;8.25;;;8.25;;
70450;SDS011;58869;51.982;4.450;2023-07-08T16:14:15;8.39;;;8.39;;
70450;SDS011;58869;51.982;4.450;2023-07-08T16:20:40;8.89;;;8.89;;
70450;SDS011;58869;51.982;4.450;2023-07-08T16:23:02;8.80;;;8.80;;
70450;SDS011;58869;51.982;4.450;2023-07-08T16:25:40;10.59;;;10.52;;
70450;SDS011;58869;51.982;4.450;2023-07-08T16:28:14;11.61;;;10.97;;
70450;SDS011;58869;51.982;4.450;2023-07-08T16:31:00;8.75;;;8.73;;
70450;SDS011;58869;51.982;4.450;2023-07-08T16:33:40;8.94;;;8.94;;
70450;SDS011;58869;51.982;4.450;2023-07-08T16:36:22;8.74;;;8.74;;
70450;SDS011;58869;51.982;4.450;2023-07-08T16:39:05;9.51;;;9.51;;
70450;SDS011;58869;51.982;4.450;2023-07-08T16:41:48;8.96;;;8.96;;
70450;SDS011;58869;51.982;4.450;2023-07-08T16:44:24;9.30;;;9.30;;
70450;SDS011;58869;51.982;4.450;2023-07-08T16:47:02;9.31;;;9.31;;
70450;SDS011;58869;51.982;4.450;2023-07-08T16:49:54;8.93;;;8.93;;
70450;SDS011;58869;51.982;4.450;2023-07-08T16:55:20;9.15;;;9.15;;
70450;SDS011;58869;51.982;4.450;2023-07-08T16:57:50;8.94;;;8.94;;
70450;SDS011;58869;51.982;4.450;2023-07-08T17:00:17;9.68;;;9.68;;
70450;SDS011;58869;51.982;4.450;2023-07-08T17:03:19;9.79;;;9.79;;
70450;SDS011;58869;51.982;4.450;2023-07-08T17:06:03;9.45;;;9.45;;
70450;SDS011;58869;51.982;4.450;2023-07-08T17:08:40;9.65;;;9.65;;
70450;SDS011;58869;51.982;4.450;2023-07-08T17:11:12;9.63;;;9.63;;
70450;SDS011;58869;51.982;4.450;2023-07-08T17:13:41;9.41;;;9.41;;
70450;SDS011;58869;51.982;4.450;2023-07-08T17:16:32;9.55;;;9.55;;
70450;SDS011;58869;51.982;4.450;2023-07-08T17:22:17;9.42;;;9.42;;
70450;SDS011;58869;51.982;4.450;2023-07-08T17:28:06;9.12;;;9.12;;
70450;SDS011;58869;51.982;4.450;2023-07-08T17:30:31;8.95;;;8.95;;
70450;SDS011;58869;51.982;4.450;2023-07-08T17:33:17;8.50;;;8.50;;
70450;SDS011;58869;51.982;4.450;2023-07-08T17:35:45;9.49;;;9.49;;
70450;SDS011;58869;51.982;4.450;2023-07-08T17:50:28;10.09;;;10.09;;
70450;SDS011;58869;51.982;4.450;2023-07-08T17:59:04;9.74;;;9.74;;
70450;SDS011;58869;51.982;4.450;2023-07-08T18:01:32;11.29;;;11.29;;
70450;SDS011;58869;51.982;4.450;2023-07-08T18:04:10;10.53;;;10.53;;
70450;SDS011;58869;51.982;4.450;2023-07-08T18:06:41;10.68;;;10.68;;
70450;SDS011;58869;51.982;4.450;2023-07-08T18:09:10;9.69;;;9.69;;
70450;SDS011;58869;51.982;4.450;2023-07-08T18:11:37;9.84;;;9.84;;
70450;SDS011;58869;51.982;4.450;2023-07-08T18:14:08;9.96;;;9.96;;
70450;SDS011;58869;51.982;4.450;2023-07-08T18:16:37;9.97;;;9.97;;
70450;SDS011;58869;51.982;4.450;2023-07-08T18:21:46;9.77;;;9.77;;
70450;SDS011;58869;51.982;4.450;2023-07-08T18:24:19;10.40;;;10.40;;
70450;SDS011;58869;51.982;4.450;2023-07-08T18:26:57;10.25;;;10.25;;
70450;SDS011;58869;51.982;4.450;2023-07-08T18:32:32;10.02;;;10.02;;
70450;SDS011;58869;51.982;4.450;2023-07-08T18:34:58;9.87;;;9.87;;
70450;SDS011;58869;51.982;4.450;2023-07-08T18:40:36;10.15;;;10.15;;
70450;SDS011;58869;51.982;4.450;2023-07-08T18:43:18;9.89;;;9.89;;
70450;SDS011;58869;51.982;4.450;2023-07-08T18:46:01;9.78;;;9.78;;
70450;SDS011;58869;51.982;4.450;2023-07-08T18:48:27;10.36;;;10.36;;
70450;SDS011;58869;51.982;4.450;2023-07-08T18:54:16;9.92;;;9.92;;
70450;SDS011;58869;51.982;4.450;2023-07-08T18:56:49;10.15;;;10.15;;
70450;SDS011;58869;51.982;4.450;2023-07-08T18:59:33;9.71;;;9.71;;
70450;SDS011;58869;51.982;4.450;2023-07-08T19:04:59;10.10;;;10.10;;
70450;SDS011;58869;51.982;4.450;2023-07-08T19:07:37;9.67;;;9.67;;